sensor_id;sensor_type;location;lat;lon;timestamp;temperature;humidity
76293;DHT22;67256;51.154;4.164;2023-10-13T00:00:46;19.30;90.40
76293;DHT22;67256;51.154;4.164;2023-10-13T00:03:13;19.30;90.30
76293;DHT22;67256;51.154;4.164;2023-10-13T00:05:42;19.30;90.30
76293;DHT22;67256;51.154;4.164;2023-10-13T00:08:09;19.30;90.20
76293;DHT22;67256;51.154;4.164;2023-10-13T00:10:35;19.40;90.10
76293;DHT22;67256;51.154;4.164;2023-10-13T00:13:02;19.50;90.10
76293;DHT22;67256;51.154;4.164;2023-10-13T00:15:47;19.40;90.20
76293;DHT22;67256;51.154;4.164;2023-10-13T00:18:22;19.30;90.40
76293;DHT22;67256;51.154;4.164;2023-10-13T00:20:48;19.30;90.40
76293;DHT22;67256;51.154;4.164;2023-10-13T00:23:15;19.30;90.20
76293;DHT22;67256;51.154;4.164;2023-10-13T00:25:48;19.30;90.20
76293;DHT22;67256;51.154;4.164;2023-10-13T00:28:26;19.30;90.30
76293;DHT22;67256;51.154;4.164;2023-10-13T00:30:53;19.30;90.40
76293;DHT22;67256;51.154;4.164;2023-10-13T00:33:25;19.30;90.40
76293;DHT22;67256;51.154;4.164;2023-10-13T00:35:51;19.30;90.50
76293;DHT22;67256;51.154;4.164;2023-10-13T00:38:23;19.30;90.30
76293;DHT22;67256;51.154;4.164;2023-10-13T00:40:50;19.40;90.20
76293;DHT22;67256;51.154;4.164;2023-10-13T00:43:20;19.50;90.10
76293;DHT22;67256;51.154;4.164;2023-10-13T00:45:47;19.50;90.00
76293;DHT22;67256;51.154;4.164;2023-10-13T00:48:45;19.50;90.00
76293;DHT22;67256;51.154;4.164;2023-10-13T00:51:18;19.50;90.00
76293;DHT22;67256;51.154;4.164;2023-10-13T00:54:07;19.50;90.00
76293;DHT22;67256;51.154;4.164;2023-10-13T00:56:42;19.50;90.10
76293;DHT22;67256;51.154;4.164;2023-10-13T00:59:18;19.50;90.10
76293;DHT22;67256;51.154;4.164;2023-10-13T01:01:49;19.50;90.10
76293;DHT22;67256;51.154;4.164;2023-10-13T01:04:20;19.50;90.00
76293;DHT22;67256;51.154;4.164;2023-10-13T01:06:46;19.50;90.00
76293;DHT22;67256;51.154;4.164;2023-10-13T01:09:11;19.50;90.10
76293;DHT22;67256;51.154;4.164;2023-10-13T01:11:49;19.40;90.20
76293;DHT22;67256;51.154;4.164;2023-10-13T01:14:21;19.30;90.40
76293;DHT22;67256;51.154;4.164;2023-10-13T01:16:52;19.30;90.70
76293;DHT22;67256;51.154;4.164;2023-10-13T01:19:19;19.40;90.60
76293;DHT22;67256;51.154;4.164;2023-10-13T01:21:51;19.30;90.60
76293;DHT22;67256;51.154;4.164;2023-10-13T01:24:22;19.30;90.70
76293;DHT22;67256;51.154;4.164;2023-10-13T01:26:49;19.20;90.80
76293;DHT22;67256;51.154;4.164;2023-10-13T01:29:18;19.30;90.80
76293;DHT22;67256;51.154;4.164;2023-10-13T01:31:46;19.20;90.90
76293;DHT22;67256;51.154;4.164;2023-10-13T01:34:18;19.30;90.90
76293;DHT22;67256;51.154;4.164;2023-10-13T01:36:54;19.30;90.70
76293;DHT22;67256;51.154;4.164;2023-10-13T01:39:22;19.40;90.80
76293;DHT22;67256;51.154;4.164;2023-10-13T01:42:00;19.40;90.80
76293;DHT22;67256;51.154;4.164;2023-10-13T01:44:27;19.40;90.80
76293;DHT22;67256;51.154;4.164;2023-10-13T01:46:59;19.40;90.70
76293;DHT22;67256;51.154;4.164;2023-10-13T01:49:32;19.50;90.70
76293;DHT22;67256;51.154;4.164;2023-10-13T01:52:06;19.40;90.80
76293;DHT22;67256;51.154;4.164;2023-10-13T01:54:33;19.40;90.70
76293;DHT22;67256;51.154;4.164;2023-10-13T01:56:59;19.40;90.90
76293;DHT22;67256;51.154;4.164;2023-10-13T01:59:25;19.40;90.70
76293;DHT22;67256;51.154;4.164;2023-10-13T02:01:52;19.40;91.00
76293;DHT22;67256;51.154;4.164;2023-10-13T02:04:23;19.40;91.10
76293;DHT22;67256;51.154;4.164;2023-10-13T02:06:49;19.40;91.00
76293;DHT22;67256;51.154;4.164;2023-10-13T02:09:14;19.40;91.10
76293;DHT22;67256;51.154;4.164;2023-10-13T02:11:55;19.50;91.00
76293;DHT22;67256;51.154;4.164;2023-10-13T02:14:22;19.50;91.20
76293;DHT22;67256;51.154;4.164;2023-10-13T02:16:48;19.50;91.10
76293;DHT22;67256;51.154;4.164;2023-10-13T02:19:22;19.50;91.20
76293;DHT22;67256;51.154;4.164;2023-10-13T02:21:52;19.50;91.30
76293;DHT22;67256;51.154;4.164;2023-10-13T02:24:24;19.50;91.30
76293;DHT22;67256;51.154;4.164;2023-10-13T02:26:56;19.50;91.30
76293;DHT22;67256;51.154;4.164;2023-10-13T02:29:29;19.50;91.60
76293;DHT22;67256;51.154;4.164;2023-10-13T02:31:54;19.40;91.80
76293;DHT22;67256;51.154;4.164;2023-10-13T02:34:21;19.40;91.80
76293;DHT22;67256;51.154;4.164;2023-10-13T02:36:50;19.40;91.80
76293;DHT22;67256;51.154;4.164;2023-10-13T02:39:17;19.50;91.80
76293;DHT22;67256;51.154;4.164;2023-10-13T02:41:43;19.50;91.80
76293;DHT22;67256;51.154;4.164;2023-10-13T02:44:15;19.50;91.90
76293;DHT22;67256;51.154;4.164;2023-10-13T02:46:57;19.50;91.80
76293;DHT22;67256;51.154;4.164;2023-10-13T02:49:25;19.40;92.30
76293;DHT22;67256;51.154;4.164;2023-10-13T02:51:52;19.30;92.50
76293;DHT22;67256;51.154;4.164;2023-10-13T02:54:18;19.30;92.70
76293;DHT22;67256;51.154;4.164;2023-10-13T02:56:45;19.30;92.80
76293;DHT22;67256;51.154;4.164;2023-10-13T02:59:24;19.20;93.20
76293;DHT22;67256;51.154;4.164;2023-10-13T03:02:07;19.20;93.10
76293;DHT22;67256;51.154;4.164;2023-10-13T03:04:54;19.30;93.40
76293;DHT22;67256;51.154;4.164;2023-10-13T03:07:27;19.30;93.20
76293;DHT22;67256;51.154;4.164;2023-10-13T03:09:58;19.40;93.00
76293;DHT22;67256;51.154;4.164;2023-10-13T03:12:26;19.30;93.30
76293;DHT22;67256;51.154;4.164;2023-10-13T03:14:58;19.30;93.40
76293;DHT22;67256;51.154;4.164;2023-10-13T03:17:38;19.20;93.80
76293;DHT22;67256;51.154;4.164;2023-10-13T03:20:13;19.20;93.80
76293;DHT22;67256;51.154;4.164;2023-10-13T03:22:41;19.30;93.70
76293;DHT22;67256;51.154;4.164;2023-10-13T03:25:13;19.40;93.60
76293;DHT22;67256;51.154;4.164;2023-10-13T03:27:56;19.40;93.40
76293;DHT22;67256;51.154;4.164;2023-10-13T03:30:22;19.20;93.80
76293;DHT22;67256;51.154;4.164;2023-10-13T03:32:55;19.20;94.10
76293;DHT22;67256;51.154;4.164;2023-10-13T03:35:22;19.20;94.00
76293;DHT22;67256;51.154;4.164;2023-10-13T03:37:51;19.20;94.10
76293;DHT22;67256;51.154;4.164;2023-10-13T03:40:17;19.10;94.20
76293;DHT22;67256;51.154;4.164;2023-10-13T03:42:53;19.30;94.10
76293;DHT22;67256;51.154;4.164;2023-10-13T03:45:41;19.30;93.90
76293;DHT22;67256;51.154;4.164;2023-10-13T03:48:13;19.30;93.90
76293;DHT22;67256;51.154;4.164;2023-10-13T03:51:00;19.20;94.20
76293;DHT22;67256;51.154;4.164;2023-10-13T03:53:39;19.20;94.10
76293;DHT22;67256;51.154;4.164;2023-10-13T03:56:28;19.30;94.00
76293;DHT22;67256;51.154;4.164;2023-10-13T03:58:57;19.30;94.00
76293;DHT22;67256;51.154;4.164;2023-10-13T04:01:24;19.30;94.00
76293;DHT22;67256;51.154;4.164;2023-10-13T04:04:00;19.30;94.20
76293;DHT22;67256;51.154;4.164;2023-10-13T04:06:31;19.30;94.20
76293;DHT22;67256;51.154;4.164;2023-10-13T04:09:19;19.20;94.50
76293;DHT22;67256;51.154;4.164;2023-10-13T04:11:58;19.20;94.40
76293;DHT22;67256;51.154;4.164;2023-10-13T04:14:28;19.10;94.70
76293;DHT22;67256;51.154;4.164;2023-10-13T04:17:14;19.10;94.90
76293;DHT22;67256;51.154;4.164;2023-10-13T04:19:40;19.10;94.70
76293;DHT22;67256;51.154;4.164;2023-10-13T04:22:26;19.20;94.60
76293;DHT22;67256;51.154;4.164;2023-10-13T04:25:18;19.20;94.50
76293;DHT22;67256;51.154;4.164;2023-10-13T04:28:07;19.20;94.70
76293;DHT22;67256;51.154;4.164;2023-10-13T04:30:36;19.20;94.30
76293;DHT22;67256;51.154;4.164;2023-10-13T04:33:18;19.30;94.50
76293;DHT22;67256;51.154;4.164;2023-10-13T04:36:15;19.30;94.30
76293;DHT22;67256;51.154;4.164;2023-10-13T04:38:48;19.20;94.40
76293;DHT22;67256;51.154;4.164;2023-10-13T04:41:38;19.30;94.40
76293;DHT22;67256;51.154;4.164;2023-10-13T04:44:07;19.30;94.20
76293;DHT22;67256;51.154;4.164;2023-10-13T04:46:53;19.30;94.00
76293;DHT22;67256;51.154;4.164;2023-10-13T04:49:46;19.30;94.00
76293;DHT22;67256;51.154;4.164;2023-10-13T04:52:11;19.40;93.90
76293;DHT22;67256;51.154;4.164;2023-10-13T04:54:38;19.40;93.70
76293;DHT22;67256;51.154;4.164;2023-10-13T04:59:50;19.50;93.60
76293;DHT22;67256;51.154;4.164;2023-10-13T05:02:36;19.50;93.60
76293;DHT22;67256;51.154;4.164;2023-10-13T05:05:15;19.40;93.60
76293;DHT22;67256;51.154;4.164;2023-10-13T05:07:44;19.40;93.90
76293;DHT22;67256;51.154;4.164;2023-10-13T05:10:29;19.40;93.80
76293;DHT22;67256;51.154;4.164;2023-10-13T05:13:13;19.40;93.80
76293;DHT22;67256;51.154;4.164;2023-10-13T05:15:57;19.40;93.90
76293;DHT22;67256;51.154;4.164;2023-10-13T05:18:41;19.30;93.70
76293;DHT22;67256;51.154;4.164;2023-10-13T05:21:26;19.30;93.70
76293;DHT22;67256;51.154;4.164;2023-10-13T05:24:10;19.20;93.80
76293;DHT22;67256;51.154;4.164;2023-10-13T05:26:55;19.20;93.90
76293;DHT22;67256;51.154;4.164;2023-10-13T05:29:43;19.30;93.70
76293;DHT22;67256;51.154;4.164;2023-10-13T05:32:27;19.30;93.60
76293;DHT22;67256;51.154;4.164;2023-10-13T05:35:12;19.30;93.60
76293;DHT22;67256;51.154;4.164;2023-10-13T05:37:56;19.30;93.60
76293;DHT22;67256;51.154;4.164;2023-10-13T05:41:01;19.30;93.60
76293;DHT22;67256;51.154;4.164;2023-10-13T05:43:45;19.40;93.30
76293;DHT22;67256;51.154;4.164;2023-10-13T05:46:30;19.40;93.20
76293;DHT22;67256;51.154;4.164;2023-10-13T05:49:04;19.50;93.20
76293;DHT22;67256;51.154;4.164;2023-10-13T05:51:43;19.30;93.50
76293;DHT22;67256;51.154;4.164;2023-10-13T05:54:33;19.10;93.90
76293;DHT22;67256;51.154;4.164;2023-10-13T05:57:17;19.20;94.00
76293;DHT22;67256;51.154;4.164;2023-10-13T06:00:02;19.10;94.00
76293;DHT22;67256;51.154;4.164;2023-10-13T06:02:46;19.10;94.20
76293;DHT22;67256;51.154;4.164;2023-10-13T06:05:30;19.10;94.30
76293;DHT22;67256;51.154;4.164;2023-10-13T06:08:15;19.10;94.40
76293;DHT22;67256;51.154;4.164;2023-10-13T06:11:02;19.10;94.20
76293;DHT22;67256;51.154;4.164;2023-10-13T06:13:47;19.20;94.30
76293;DHT22;67256;51.154;4.164;2023-10-13T06:16:32;19.10;94.10
76293;DHT22;67256;51.154;4.164;2023-10-13T06:19:17;19.10;94.40
76293;DHT22;67256;51.154;4.164;2023-10-13T06:22:01;19.20;94.10
76293;DHT22;67256;51.154;4.164;2023-10-13T06:24:45;19.10;94.30
76293;DHT22;67256;51.154;4.164;2023-10-13T06:27:29;19.10;94.50
76293;DHT22;67256;51.154;4.164;2023-10-13T06:30:13;18.90;94.60
76293;DHT22;67256;51.154;4.164;2023-10-13T06:32:39;18.90;94.80
76293;DHT22;67256;51.154;4.164;2023-10-13T06:35:05;18.90;94.70
76293;DHT22;67256;51.154;4.164;2023-10-13T06:37:34;18.90;94.70
76293;DHT22;67256;51.154;4.164;2023-10-13T06:40:12;18.90;94.70
76293;DHT22;67256;51.154;4.164;2023-10-13T06:42:50;19.00;94.50
76293;DHT22;67256;51.154;4.164;2023-10-13T06:45:16;19.00;94.30
76293;DHT22;67256;51.154;4.164;2023-10-13T06:47:44;19.00;94.30
76293;DHT22;67256;51.154;4.164;2023-10-13T06:50:14;19.10;94.00
76293;DHT22;67256;51.154;4.164;2023-10-13T06:52:45;19.20;93.70
76293;DHT22;67256;51.154;4.164;2023-10-13T06:55:11;19.20;93.50
76293;DHT22;67256;51.154;4.164;2023-10-13T06:57:44;19.20;93.40
76293;DHT22;67256;51.154;4.164;2023-10-13T07:00:13;19.20;93.60
76293;DHT22;67256;51.154;4.164;2023-10-13T07:02:51;19.10;93.50
76293;DHT22;67256;51.154;4.164;2023-10-13T07:05:18;19.10;93.70
76293;DHT22;67256;51.154;4.164;2023-10-13T07:07:45;19.20;93.50
76293;DHT22;67256;51.154;4.164;2023-10-13T07:10:12;19.20;93.60
76293;DHT22;67256;51.154;4.164;2023-10-13T07:12:39;19.10;93.50
76293;DHT22;67256;51.154;4.164;2023-10-13T07:15:15;19.20;93.40
76293;DHT22;67256;51.154;4.164;2023-10-13T07:17:44;19.20;93.20
76293;DHT22;67256;51.154;4.164;2023-10-13T07:20:10;19.20;93.20
76293;DHT22;67256;51.154;4.164;2023-10-13T07:22:50;19.30;93.10
76293;DHT22;67256;51.154;4.164;2023-10-13T07:25:33;19.50;92.70
76293;DHT22;67256;51.154;4.164;2023-10-13T07:28:05;19.50;92.50
76293;DHT22;67256;51.154;4.164;2023-10-13T07:30:34;19.50;92.20
76293;DHT22;67256;51.154;4.164;2023-10-13T07:33:16;19.50;92.30
76293;DHT22;67256;51.154;4.164;2023-10-13T07:35:46;19.50;92.20
76293;DHT22;67256;51.154;4.164;2023-10-13T07:38:17;19.50;92.20
76293;DHT22;67256;51.154;4.164;2023-10-13T07:40:46;19.60;91.50
76293;DHT22;67256;51.154;4.164;2023-10-13T07:43:19;19.50;91.60
76293;DHT22;67256;51.154;4.164;2023-10-13T07:45:47;19.70;91.70
76293;DHT22;67256;51.154;4.164;2023-10-13T07:48:16;19.70;91.50
76293;DHT22;67256;51.154;4.164;2023-10-13T07:51:00;19.80;91.40
76293;DHT22;67256;51.154;4.164;2023-10-13T07:53:27;19.70;90.80
76293;DHT22;67256;51.154;4.164;2023-10-13T07:56:00;19.70;91.10
76293;DHT22;67256;51.154;4.164;2023-10-13T07:58:38;19.70;91.30
76293;DHT22;67256;51.154;4.164;2023-10-13T08:01:19;19.70;91.40
76293;DHT22;67256;51.154;4.164;2023-10-13T08:03:46;19.80;91.20
76293;DHT22;67256;51.154;4.164;2023-10-13T08:06:13;19.80;91.10
76293;DHT22;67256;51.154;4.164;2023-10-13T08:08:40;19.90;90.80
76293;DHT22;67256;51.154;4.164;2023-10-13T08:11:06;19.80;91.00
76293;DHT22;67256;51.154;4.164;2023-10-13T08:13:54;19.90;90.80
76293;DHT22;67256;51.154;4.164;2023-10-13T08:16:22;19.90;90.60
76293;DHT22;67256;51.154;4.164;2023-10-13T08:18:51;20.00;90.70
76293;DHT22;67256;51.154;4.164;2023-10-13T08:21:20;20.10;90.60
76293;DHT22;67256;51.154;4.164;2023-10-13T08:23:52;20.10;90.30
76293;DHT22;67256;51.154;4.164;2023-10-13T08:26:25;20.20;90.30
76293;DHT22;67256;51.154;4.164;2023-10-13T08:29:05;20.30;90.10
76293;DHT22;67256;51.154;4.164;2023-10-13T08:31:51;20.40;89.80
76293;DHT22;67256;51.154;4.164;2023-10-13T08:34:32;20.40;90.00
76293;DHT22;67256;51.154;4.164;2023-10-13T08:37:25;20.40;89.50
76293;DHT22;67256;51.154;4.164;2023-10-13T08:39:56;20.40;89.10
76293;DHT22;67256;51.154;4.164;2023-10-13T08:42:38;20.50;88.60
76293;DHT22;67256;51.154;4.164;2023-10-13T08:45:10;20.40;88.40
76293;DHT22;67256;51.154;4.164;2023-10-13T08:47:59;20.30;88.80
76293;DHT22;67256;51.154;4.164;2023-10-13T08:50:47;20.40;88.10
76293;DHT22;67256;51.154;4.164;2023-10-13T08:53:23;20.50;88.50
76293;DHT22;67256;51.154;4.164;2023-10-13T08:56:08;20.60;88.10
76293;DHT22;67256;51.154;4.164;2023-10-13T08:58:37;20.60;87.40
76293;DHT22;67256;51.154;4.164;2023-10-13T09:01:32;20.60;87.40
76293;DHT22;67256;51.154;4.164;2023-10-13T09:04:36;20.60;87.80
76293;DHT22;67256;51.154;4.164;2023-10-13T09:07:04;20.50;87.60
76293;DHT22;67256;51.154;4.164;2023-10-13T09:09:51;20.60;87.50
76293;DHT22;67256;51.154;4.164;2023-10-13T09:15:09;20.70;86.40
76293;DHT22;67256;51.154;4.164;2023-10-13T09:17:48;20.70;86.50
76293;DHT22;67256;51.154;4.164;2023-10-13T09:20:18;20.70;86.30
76293;DHT22;67256;51.154;4.164;2023-10-13T09:23:13;20.90;85.40
76293;DHT22;67256;51.154;4.164;2023-10-13T09:25:49;20.90;84.50
76293;DHT22;67256;51.154;4.164;2023-10-13T09:28:27;20.80;84.70
76293;DHT22;67256;51.154;4.164;2023-10-13T09:30:55;20.80;84.70
76293;DHT22;67256;51.154;4.164;2023-10-13T09:33:26;20.80;84.80
76293;DHT22;67256;51.154;4.164;2023-10-13T09:36:05;20.70;84.90
76293;DHT22;67256;51.154;4.164;2023-10-13T09:38:38;20.70;84.60
76293;DHT22;67256;51.154;4.164;2023-10-13T09:41:08;20.70;84.60
76293;DHT22;67256;51.154;4.164;2023-10-13T09:43:52;20.60;84.60
76293;DHT22;67256;51.154;4.164;2023-10-13T09:46:21;20.70;84.10
76293;DHT22;67256;51.154;4.164;2023-10-13T09:48:50;20.70;83.90
76293;DHT22;67256;51.154;4.164;2023-10-13T09:51:30;20.70;83.70
76293;DHT22;67256;51.154;4.164;2023-10-13T09:54:58;20.70;83.20
76293;DHT22;67256;51.154;4.164;2023-10-13T09:57:18;20.80;83.00
76293;DHT22;67256;51.154;4.164;2023-10-13T09:59:52;20.80;83.10
76293;DHT22;67256;51.154;4.164;2023-10-13T10:02:22;20.80;82.70
76293;DHT22;67256;51.154;4.164;2023-10-13T10:04:54;20.80;83.10
76293;DHT22;67256;51.154;4.164;2023-10-13T10:07:39;20.70;82.70
76293;DHT22;67256;51.154;4.164;2023-10-13T10:10:09;20.80;82.40
76293;DHT22;67256;51.154;4.164;2023-10-13T10:12:43;20.70;82.20
76293;DHT22;67256;51.154;4.164;2023-10-13T10:15:34;20.70;82.60
76293;DHT22;67256;51.154;4.164;2023-10-13T10:18:02;20.80;82.10
76293;DHT22;67256;51.154;4.164;2023-10-13T10:20:33;20.70;82.30
76293;DHT22;67256;51.154;4.164;2023-10-13T10:23:09;20.70;82.00
76293;DHT22;67256;51.154;4.164;2023-10-13T10:25:47;20.70;81.80
76293;DHT22;67256;51.154;4.164;2023-10-13T10:28:13;20.70;82.10
76293;DHT22;67256;51.154;4.164;2023-10-13T10:30:42;20.80;82.20
76293;DHT22;67256;51.154;4.164;2023-10-13T10:33:11;20.80;82.20
76293;DHT22;67256;51.154;4.164;2023-10-13T10:35:47;20.80;82.10
76293;DHT22;67256;51.154;4.164;2023-10-13T10:38:23;20.80;81.60
76293;DHT22;67256;51.154;4.164;2023-10-13T10:41:05;20.90;81.40
76293;DHT22;67256;51.154;4.164;2023-10-13T10:48:41;20.90;81.40
76293;DHT22;67256;51.154;4.164;2023-10-13T10:51:12;20.90;81.20
76293;DHT22;67256;51.154;4.164;2023-10-13T10:53:43;20.90;81.00
76293;DHT22;67256;51.154;4.164;2023-10-13T10:56:14;20.90;81.10
76293;DHT22;67256;51.154;4.164;2023-10-13T10:58:49;20.90;80.60
76293;DHT22;67256;51.154;4.164;2023-10-13T11:01:24;20.90;81.30
76293;DHT22;67256;51.154;4.164;2023-10-13T11:03:58;21.00;80.90
76293;DHT22;67256;51.154;4.164;2023-10-13T11:06:27;21.10;80.50
76293;DHT22;67256;51.154;4.164;2023-10-13T11:09:03;21.20;80.30
76293;DHT22;67256;51.154;4.164;2023-10-13T11:11:30;21.30;79.90
76293;DHT22;67256;51.154;4.164;2023-10-13T11:14:01;21.40;79.30
76293;DHT22;67256;51.154;4.164;2023-10-13T11:16:48;21.40;79.10
76293;DHT22;67256;51.154;4.164;2023-10-13T11:19:33;21.50;78.60
76293;DHT22;67256;51.154;4.164;2023-10-13T11:22:10;21.50;78.70
76293;DHT22;67256;51.154;4.164;2023-10-13T11:24:42;21.50;77.90
76293;DHT22;67256;51.154;4.164;2023-10-13T11:27:15;21.50;78.40
76293;DHT22;67256;51.154;4.164;2023-10-13T11:30:08;21.50;78.00
76293;DHT22;67256;51.154;4.164;2023-10-13T11:32:39;21.40;78.20
76293;DHT22;67256;51.154;4.164;2023-10-13T11:35:08;21.40;78.00
76293;DHT22;67256;51.154;4.164;2023-10-13T11:37:47;21.40;78.50
76293;DHT22;67256;51.154;4.164;2023-10-13T11:40:38;21.40;78.30
76293;DHT22;67256;51.154;4.164;2023-10-13T11:43:23;21.50;78.30
76293;DHT22;67256;51.154;4.164;2023-10-13T11:45:50;21.60;77.50
76293;DHT22;67256;51.154;4.164;2023-10-13T11:48:39;21.60;77.40
76293;DHT22;67256;51.154;4.164;2023-10-13T11:51:10;21.70;76.70
76293;DHT22;67256;51.154;4.164;2023-10-13T11:53:46;21.70;76.00
76293;DHT22;67256;51.154;4.164;2023-10-13T11:56:18;21.70;76.50
76293;DHT22;67256;51.154;4.164;2023-10-13T11:58:46;21.70;76.10
76293;DHT22;67256;51.154;4.164;2023-10-13T12:01:14;21.70;76.20
76293;DHT22;67256;51.154;4.164;2023-10-13T12:03:44;21.70;76.30
76293;DHT22;67256;51.154;4.164;2023-10-13T12:06:30;21.80;75.40
76293;DHT22;67256;51.154;4.164;2023-10-13T12:09:06;21.70;75.60
76293;DHT22;67256;51.154;4.164;2023-10-13T12:11:48;21.60;75.40
76293;DHT22;67256;51.154;4.164;2023-10-13T12:14:19;21.60;75.60
76293;DHT22;67256;51.154;4.164;2023-10-13T12:16:47;21.60;75.50
76293;DHT22;67256;51.154;4.164;2023-10-13T12:19:22;21.60;74.90
76293;DHT22;67256;51.154;4.164;2023-10-13T12:21:55;21.70;74.80
76293;DHT22;67256;51.154;4.164;2023-10-13T12:27:08;21.90;74.50
76293;DHT22;67256;51.154;4.164;2023-10-13T12:29:50;21.90;74.30
76293;DHT22;67256;51.154;4.164;2023-10-13T12:32:17;22.00;73.90
76293;DHT22;67256;51.154;4.164;2023-10-13T12:34:49;22.10;73.60
76293;DHT22;67256;51.154;4.164;2023-10-13T12:37:31;22.10;73.50
76293;DHT22;67256;51.154;4.164;2023-10-13T12:40:10;22.20;72.90
76293;DHT22;67256;51.154;4.164;2023-10-13T12:42:56;22.20;73.20
76293;DHT22;67256;51.154;4.164;2023-10-13T12:45:44;22.20;72.90
76293;DHT22;67256;51.154;4.164;2023-10-13T12:48:31;22.20;72.50
76293;DHT22;67256;51.154;4.164;2023-10-13T12:51:16;22.20;73.20
76293;DHT22;67256;51.154;4.164;2023-10-13T12:53:55;22.20;73.40
76293;DHT22;67256;51.154;4.164;2023-10-13T12:56:30;22.20;73.10
76293;DHT22;67256;51.154;4.164;2023-10-13T12:58:56;22.20;72.80
76293;DHT22;67256;51.154;4.164;2023-10-13T13:01:23;22.20;73.20
76293;DHT22;67256;51.154;4.164;2023-10-13T13:03:51;22.20;73.20
76293;DHT22;67256;51.154;4.164;2023-10-13T13:06:23;22.30;73.00
76293;DHT22;67256;51.154;4.164;2023-10-13T13:08:55;22.30;74.50
76293;DHT22;67256;51.154;4.164;2023-10-13T13:11:21;22.30;74.30
76293;DHT22;67256;51.154;4.164;2023-10-13T13:13:48;22.20;74.20
76293;DHT22;67256;51.154;4.164;2023-10-13T13:16:15;22.20;75.00
76293;DHT22;67256;51.154;4.164;2023-10-13T13:18:45;22.30;75.10
76293;DHT22;67256;51.154;4.164;2023-10-13T13:21:11;22.30;74.70
76293;DHT22;67256;51.154;4.164;2023-10-13T13:23:48;22.30;74.90
76293;DHT22;67256;51.154;4.164;2023-10-13T13:26:14;22.20;75.20
76293;DHT22;67256;51.154;4.164;2023-10-13T13:28:48;22.20;75.30
76293;DHT22;67256;51.154;4.164;2023-10-13T13:31:18;22.30;75.30
76293;DHT22;67256;51.154;4.164;2023-10-13T13:33:43;22.30;74.40
76293;DHT22;67256;51.154;4.164;2023-10-13T13:36:10;22.40;74.90
76293;DHT22;67256;51.154;4.164;2023-10-13T13:38:42;22.40;73.80
76293;DHT22;67256;51.154;4.164;2023-10-13T13:41:15;22.40;73.40
76293;DHT22;67256;51.154;4.164;2023-10-13T13:43:49;22.40;74.10
76293;DHT22;67256;51.154;4.164;2023-10-13T13:46:24;22.40;73.90
76293;DHT22;67256;51.154;4.164;2023-10-13T13:48:51;22.40;74.20
76293;DHT22;67256;51.154;4.164;2023-10-13T13:51:32;22.50;74.20
76293;DHT22;67256;51.154;4.164;2023-10-13T13:54:00;22.50;74.00
76293;DHT22;67256;51.154;4.164;2023-10-13T13:56:26;22.60;73.90
76293;DHT22;67256;51.154;4.164;2023-10-13T13:58:54;22.60;74.00
76293;DHT22;67256;51.154;4.164;2023-10-13T14:01:24;22.50;74.00
76293;DHT22;67256;51.154;4.164;2023-10-13T14:03:54;22.40;74.90
76293;DHT22;67256;51.154;4.164;2023-10-13T14:06:28;22.50;75.10
76293;DHT22;67256;51.154;4.164;2023-10-13T14:08:58;22.40;74.80
76293;DHT22;67256;51.154;4.164;2023-10-13T14:11:59;22.40;74.80
76293;DHT22;67256;51.154;4.164;2023-10-13T14:14:44;22.40;75.20
76293;DHT22;67256;51.154;4.164;2023-10-13T14:17:16;22.40;74.90
76293;DHT22;67256;51.154;4.164;2023-10-13T14:19:42;22.40;74.60
76293;DHT22;67256;51.154;4.164;2023-10-13T14:22:09;22.40;75.10
76293;DHT22;67256;51.154;4.164;2023-10-13T14:24:37;22.30;74.80
76293;DHT22;67256;51.154;4.164;2023-10-13T14:27:10;22.30;74.80
76293;DHT22;67256;51.154;4.164;2023-10-13T14:29:43;22.20;74.90
76293;DHT22;67256;51.154;4.164;2023-10-13T14:32:10;22.20;75.10
76293;DHT22;67256;51.154;4.164;2023-10-13T14:34:41;22.20;75.90
76293;DHT22;67256;51.154;4.164;2023-10-13T14:37:08;22.10;76.20
76293;DHT22;67256;51.154;4.164;2023-10-13T14:39:34;22.10;75.80
76293;DHT22;67256;51.154;4.164;2023-10-13T14:42:03;22.10;76.30
76293;DHT22;67256;51.154;4.164;2023-10-13T14:44:32;22.20;76.00
76293;DHT22;67256;51.154;4.164;2023-10-13T14:46:58;22.20;76.00
76293;DHT22;67256;51.154;4.164;2023-10-13T14:49:23;22.20;75.70
76293;DHT22;67256;51.154;4.164;2023-10-13T14:51:49;22.10;75.70
76293;DHT22;67256;51.154;4.164;2023-10-13T14:54:15;22.10;75.70
76293;DHT22;67256;51.154;4.164;2023-10-13T14:56:41;22.10;75.50
76293;DHT22;67256;51.154;4.164;2023-10-13T14:59:08;22.10;75.40
76293;DHT22;67256;51.154;4.164;2023-10-13T15:01:42;22.10;75.50
76293;DHT22;67256;51.154;4.164;2023-10-13T15:04:08;22.00;75.40
76293;DHT22;67256;51.154;4.164;2023-10-13T15:06:34;21.90;75.70
76293;DHT22;67256;51.154;4.164;2023-10-13T15:09:00;21.90;75.30
76293;DHT22;67256;51.154;4.164;2023-10-13T15:11:27;22.00;75.10
76293;DHT22;67256;51.154;4.164;2023-10-13T15:14:05;22.00;75.00
76293;DHT22;67256;51.154;4.164;2023-10-13T15:16:33;22.00;75.00
76293;DHT22;67256;51.154;4.164;2023-10-13T15:19:00;22.00;75.20
76293;DHT22;67256;51.154;4.164;2023-10-13T15:21:28;22.00;75.40
76293;DHT22;67256;51.154;4.164;2023-10-13T15:24:06;22.00;74.90
76293;DHT22;67256;51.154;4.164;2023-10-13T15:26:45;22.00;75.10
76293;DHT22;67256;51.154;4.164;2023-10-13T15:29:16;22.00;74.90
76293;DHT22;67256;51.154;4.164;2023-10-13T15:31:46;22.00;75.00
76293;DHT22;67256;51.154;4.164;2023-10-13T15:34:24;22.00;75.10
76293;DHT22;67256;51.154;4.164;2023-10-13T15:36:51;22.00;75.20
76293;DHT22;67256;51.154;4.164;2023-10-13T15:39:18;21.90;75.40
76293;DHT22;67256;51.154;4.164;2023-10-13T15:41:50;22.00;75.60
76293;DHT22;67256;51.154;4.164;2023-10-13T15:44:20;22.00;75.40
76293;DHT22;67256;51.154;4.164;2023-10-13T15:46:47;21.90;75.50
76293;DHT22;67256;51.154;4.164;2023-10-13T15:49:15;22.00;75.40
76293;DHT22;67256;51.154;4.164;2023-10-13T15:51:41;21.90;75.40
76293;DHT22;67256;51.154;4.164;2023-10-13T15:54:08;22.00;75.30
76293;DHT22;67256;51.154;4.164;2023-10-13T15:56:48;22.00;75.40
76293;DHT22;67256;51.154;4.164;2023-10-13T15:59:15;21.90;74.90
76293;DHT22;67256;51.154;4.164;2023-10-13T16:01:41;21.80;75.50
76293;DHT22;67256;51.154;4.164;2023-10-13T16:04:08;21.80;75.70
76293;DHT22;67256;51.154;4.164;2023-10-13T16:06:46;21.80;75.50
76293;DHT22;67256;51.154;4.164;2023-10-13T16:09:16;21.80;75.80
76293;DHT22;67256;51.154;4.164;2023-10-13T16:11:48;21.80;75.80
76293;DHT22;67256;51.154;4.164;2023-10-13T16:14:15;21.60;77.20
76293;DHT22;67256;51.154;4.164;2023-10-13T16:16:45;21.50;79.70
76293;DHT22;67256;51.154;4.164;2023-10-13T16:19:15;21.50;80.40
76293;DHT22;67256;51.154;4.164;2023-10-13T16:21:44;21.40;80.90
76293;DHT22;67256;51.154;4.164;2023-10-13T16:24:11;21.40;81.90
76293;DHT22;67256;51.154;4.164;2023-10-13T16:26:37;21.40;82.10